createdAt,value
2023-05-08T00:00:46.550Z,15.40
2023-05-08T00:03:14.702Z,15.30
2023-05-08T00:05:43.014Z,15.20
2023-05-08T00:08:11.180Z,15.20
2023-05-08T00:10:39.379Z,15.10
2023-05-08T00:13:08.954Z,15.00
2023-05-08T00:15:37.763Z,15.00
2023-05-08T00:18:06.544Z,14.90
2023-05-08T00:20:35.301Z,14.80
2023-05-08T00:23:03.414Z,14.70
2023-05-08T00:25:32.019Z,14.70
2023-05-08T00:28:00.244Z,14.60
2023-05-08T00:30:30.296Z,14.60
2023-05-08T00:32:58.907Z,14.50
2023-05-08T00:35:27.160Z,14.50
2023-05-08T00:37:55.287Z,14.40
2023-05-08T00:40:23.688Z,14.40
2023-05-08T00:42:51.892Z,14.30
2023-05-08T00:45:20.956Z,14.30
2023-05-08T00:47:52.062Z,14.30
2023-05-08T00:50:20.805Z,14.20
2023-05-08T00:52:49.449Z,14.20
2023-05-08T00:55:17.731Z,14.10
2023-05-08T00:57:48.907Z,14.10
2023-05-08T01:00:19.353Z,14.10
2023-05-08T01:02:48.297Z,14.00
2023-05-08T01:05:18.240Z,14.00
2023-05-08T01:07:47.221Z,14.00
2023-05-08T01:10:16.325Z,13.90
2023-05-08T01:13:10.326Z,13.90
2023-05-08T01:15:48.797Z,13.90
2023-05-08T01:18:27.711Z,13.90
2023-05-08T01:21:24.807Z,13.90
2023-05-08T01:24:43.601Z,13.90
2023-05-08T01:28:01.761Z,14.00
2023-05-08T01:31:06.604Z,14.00
2023-05-08T01:33:47.266Z,14.00
2023-05-08T01:36:33.885Z,14.00
2023-05-08T01:39:16.546Z,14.00
2023-05-08T01:41:55.555Z,14.10
2023-05-08T01:44:33.759Z,14.10
2023-05-08T01:47:09.805Z,14.10
2023-05-08T01:49:45.966Z,14.10
2023-05-08T01:52:22.144Z,14.10
2023-05-08T01:55:06.313Z,14.10
2023-05-08T01:57:39.312Z,14.10
2023-05-08T02:00:10.318Z,14.10
2023-05-08T02:02:38.731Z,14.10
2023-05-08T02:05:12.935Z,14.10
2023-05-08T02:07:43.652Z,14.10
2023-05-08T02:10:13.657Z,14.10
2023-05-08T02:12:44.202Z,14.00
2023-05-08T02:15:15.600Z,14.00
2023-05-08T02:17:49.751Z,14.00
2023-05-08T02:20:22.274Z,13.90
2023-05-08T02:22:52.765Z,13.90
2023-05-08T02:25:22.342Z,13.80
2023-05-08T02:27:55.482Z,13.80
2023-05-08T02:30:26.881Z,13.80
2023-05-08T02:33:00.828Z,13.70
2023-05-08T02:35:32.671Z,13.70
2023-05-08T02:38:03.539Z,13.60
2023-05-08T02:40:34.107Z,13.60
2023-05-08T02:43:02.544Z,13.50
2023-05-08T02:45:40.743Z,13.50
2023-05-08T02:48:15.873Z,13.40
2023-05-08T02:50:56.286Z,13.40
2023-05-08T02:53:33.818Z,13.30
2023-05-08T02:56:11.859Z,13.30
2023-05-08T02:58:50.017Z,13.30
2023-05-08T03:01:28.999Z,13.20
2023-05-08T03:04:06.749Z,13.20
2023-05-08T03:06:42.677Z,13.20
2023-05-08T03:09:21.492Z,13.10
2023-05-08T03:11:58.895Z,13.10
2023-05-08T03:14:30.990Z,13.10
2023-05-08T03:17:03.028Z,13.10
2023-05-08T03:19:38.026Z,13.10
2023-05-08T03:22:12.417Z,13.00
2023-05-08T03:24:45.180Z,13.00
2023-05-08T03:27:15.642Z,13.00
2023-05-08T03:29:45.217Z,13.00
2023-05-08T03:32:15.334Z,13.00
2023-05-08T03:34:44.108Z,12.90
2023-05-08T03:37:14.195Z,12.90
2023-05-08T03:39:42.633Z,12.90
2023-05-08T03:42:21.019Z,12.90
2023-05-08T03:44:51.653Z,12.90
2023-05-08T03:47:20.859Z,12.90
2023-05-08T03:49:51.473Z,12.90
2023-05-08T03:52:21.207Z,12.90
2023-05-08T03:54:49.372Z,12.90
2023-05-08T03:57:17.702Z,12.90
2023-05-08T03:59:54.017Z,12.90
2023-05-08T04:02:42.531Z,12.90
2023-05-08T04:05:22.459Z,12.90
2023-05-08T04:07:58.122Z,12.80
2023-05-08T04:10:33.641Z,12.80
2023-05-08T04:13:08.125Z,12.90
2023-05-08T04:15:49.512Z,12.90
2023-05-08T04:18:23.412Z,12.90
2023-05-08T04:20:56.632Z,12.90
2023-05-08T04:23:27.556Z,12.90
2023-05-08T04:25:58.771Z,12.90
2023-05-08T04:28:27.052Z,12.90
2023-05-08T04:30:58.246Z,12.90
2023-05-08T04:33:26.907Z,12.90
2023-05-08T04:35:55.771Z,12.90
2023-05-08T04:38:25.696Z,12.90
2023-05-08T04:40:53.949Z,13.00
2023-05-08T04:43:22.230Z,13.00
2023-05-08T04:45:50.429Z,13.00
2023-05-08T04:48:18.978Z,13.00
2023-05-08T04:50:47.360Z,13.10
2023-05-08T04:53:15.957Z,13.10
2023-05-08T04:55:45.770Z,13.20
2023-05-08T04:58:14.021Z,13.20
2023-05-08T05:00:42.614Z,13.30
2023-05-08T05:03:10.934Z,13.30
2023-05-08T05:05:39.907Z,13.40
2023-05-08T05:08:08.870Z,13.50
2023-05-08T05:10:38.831Z,13.50
2023-05-08T05:13:08.592Z,13.50
2023-05-08T05:15:36.809Z,13.50
2023-05-08T05:18:05.225Z,13.60
2023-05-08T05:20:33.873Z,13.70
2023-05-08T05:23:02.035Z,13.70
2023-05-08T05:25:30.338Z,13.80
2023-05-08T05:27:58.829Z,13.90
2023-05-08T05:30:29.541Z,14.00
2023-05-08T05:32:57.885Z,14.10
2023-05-08T05:35:26.335Z,14.10
2023-05-08T05:37:56.344Z,14.20
2023-05-08T05:40:24.586Z,14.20
2023-05-08T05:42:53.371Z,14.30
2023-05-08T05:45:22.032Z,14.30
2023-05-08T05:47:54.046Z,14.40
2023-05-08T05:50:24.313Z,14.50
2023-05-08T05:52:52.894Z,14.50
2023-05-08T05:55:22.073Z,14.60
2023-05-08T05:57:50.436Z,14.70
2023-05-08T06:00:21.165Z,14.80
2023-05-08T06:02:55.200Z,14.80
2023-05-08T06:05:24.030Z,14.90
2023-05-08T06:07:52.867Z,14.90
2023-05-08T06:10:21.244Z,15.00
2023-05-08T06:12:49.569Z,15.10
2023-05-08T06:15:18.441Z,15.20
2023-05-08T06:17:48.045Z,15.30
2023-05-08T06:20:17.948Z,15.40
2023-05-08T06:22:46.341Z,15.50
2023-05-08T06:25:14.710Z,15.60
2023-05-08T06:27:43.201Z,15.70
2023-05-08T06:30:12.845Z,15.80
2023-05-08T06:32:41.199Z,15.90
2023-05-08T06:35:12.213Z,15.90
2023-05-08T06:37:42.240Z,16.00
2023-05-08T06:40:13.692Z,16.10
2023-05-08T06:42:42.622Z,16.20
2023-05-08T06:45:12.193Z,16.20
2023-05-08T06:47:40.885Z,16.30
2023-05-08T06:50:10.232Z,16.40
2023-05-08T06:52:38.438Z,16.40
2023-05-08T06:55:09.216Z,16.50
2023-05-08T06:57:37.685Z,16.60
2023-05-08T07:00:07.268Z,16.80
2023-05-08T07:02:35.485Z,16.90
2023-05-08T07:05:04.196Z,17.00
2023-05-08T07:07:32.547Z,17.00
2023-05-08T07:10:00.856Z,17.10
2023-05-08T07:12:30.442Z,17.20
2023-05-08T07:14:58.646Z,17.30
2023-05-08T07:17:27.017Z,17.40
2023-05-08T07:19:55.222Z,17.40
2023-05-08T07:22:23.488Z,17.60
2023-05-08T07:24:51.711Z,17.70
2023-05-08T07:27:20.226Z,17.90
2023-05-08T07:29:49.753Z,18.00
2023-05-08T07:32:18.041Z,18.10
2023-05-08T07:34:46.271Z,18.20
2023-05-08T07:37:14.509Z,18.30
2023-05-08T07:39:42.660Z,18.40
2023-05-08T07:42:11.779Z,18.50
2023-05-08T07:44:50.976Z,18.60
2023-05-08T07:47:24.483Z,18.80
2023-05-08T07:49:52.657Z,18.90
2023-05-08T07:52:20.831Z,19.00
2023-05-08T07:54:48.958Z,19.20
2023-05-08T07:57:17.078Z,19.30
2023-05-08T07:59:45.412Z,19.50
2023-05-08T08:02:14.306Z,19.60
2023-05-08T08:04:43.827Z,19.60
2023-05-08T08:07:11.971Z,19.60
2023-05-08T08:09:40.116Z,19.70
2023-05-08T08:12:08.411Z,19.80
2023-05-08T08:14:36.505Z,19.90
2023-05-08T08:17:04.722Z,20.00
2023-05-08T08:19:32.916Z,20.20
2023-05-08T08:22:02.410Z,20.20
2023-05-08T08:24:30.557Z,20.30
2023-05-08T08:26:58.927Z,20.30
2023-05-08T08:29:27.171Z,20.40
2023-05-08T08:31:55.390Z,20.50
2023-05-08T08:34:23.789Z,20.60
2023-05-08T08:36:51.867Z,20.80
2023-05-08T08:39:21.588Z,20.90
2023-05-08T08:41:49.783Z,21.00
2023-05-08T08:44:17.972Z,21.10
2023-05-08T08:46:52.383Z,21.20
2023-05-08T08:49:29.336Z,21.20
2023-05-08T08:52:04.893Z,21.20
2023-05-08T08:54:37.071Z,21.30
2023-05-08T08:57:08.732Z,21.30
2023-05-08T08:59:40.017Z,21.50
2023-05-08T09:02:17.716Z,21.60
2023-05-08T09:04:46.128Z,21.70
2023-05-08T09:07:14.481Z,21.80
2023-05-08T09:09:46.205Z,21.80
2023-05-08T09:12:14.753Z,21.90
2023-05-08T09:14:43.236Z,21.90
2023-05-08T09:17:11.438Z,21.90
2023-05-08T09:19:39.963Z,22.00
2023-05-08T09:22:09.289Z,22.00
2023-05-08T09:24:59.484Z,22.10
2023-05-08T09:27:29.449Z,22.20
2023-05-08T09:30:04.484Z,22.20
2023-05-08T09:32:34.448Z,22.20
2023-05-08T09:35:02.977Z,22.20
2023-05-08T09:37:31.394Z,22.30
2023-05-08T09:42:54.000Z,22.50
2023-05-08T09:45:30.078Z,22.60
2023-05-08T09:47:58.412Z,22.70
2023-05-08T09:50:27.227Z,22.80
2023-05-08T09:52:55.432Z,22.90
2023-05-08T09:55:23.692Z,23.00
2023-05-08T09:57:58.959Z,23.10
2023-05-08T10:00:30.720Z,23.20
2023-05-08T10:03:01.549Z,23.20
2023-05-08T10:05:32.506Z,23.20
2023-05-08T10:08:19.492Z,23.20
2023-05-08T10:10:47.625Z,23.20
2023-05-08T10:13:17.221Z,23.20
2023-05-08T10:15:46.166Z,23.30
2023-05-08T10:18:18.214Z,23.30
2023-05-08T10:20:49.200Z,23.20
2023-05-08T10:23:19.018Z,23.10
2023-05-08T10:25:49.078Z,23.10
2023-05-08T10:28:30.227Z,23.10
2023-05-08T10:31:05.299Z,23.10
2023-05-08T10:33:36.284Z,23.10
2023-05-08T10:36:05.038Z,23.00
2023-05-08T10:38:34.940Z,23.10
2023-05-08T10:41:03.686Z,23.10
2023-05-08T10:43:35.092Z,23.00
2023-05-08T10:46:12.326Z,23.10
2023-05-08T10:48:54.590Z,23.20
2023-05-08T10:51:34.165Z,23.30
2023-05-08T10:54:13.163Z,23.30
2023-05-08T10:56:41.321Z,23.30
2023-05-08T10:59:20.266Z,23.40
2023-05-08T11:01:50.044Z,23.50
2023-05-08T11:04:22.600Z,23.60
2023-05-08T11:06:53.159Z,23.70
2023-05-08T11:09:30.612Z,23.80
2023-05-08T11:12:10.833Z,23.90
2023-05-08T11:14:44.451Z,23.90
2023-05-08T11:17:12.646Z,24.00
2023-05-08T11:19:58.189Z,24.10
2023-05-08T11:22:29.789Z,24.10
2023-05-08T11:25:05.173Z,24.10
2023-05-08T11:28:12.265Z,24.00
2023-05-08T11:30:41.951Z,24.00
2023-05-08T11:33:19.344Z,23.90
2023-05-08T11:35:57.216Z,23.90
2023-05-08T11:38:29.710Z,23.90
2023-05-08T11:41:04.421Z,23.80
2023-05-08T11:44:02.155Z,23.80
2023-05-08T11:46:41.560Z,23.80
2023-05-08T11:49:16.534Z,23.80
2023-05-08T11:51:47.604Z,23.80
2023-05-08T11:54:18.556Z,23.80
2023-05-08T11:56:51.393Z,23.80
2023-05-08T11:59:20.423Z,23.90
2023-05-08T12:04:23.746Z,23.90
2023-05-08T12:06:58.835Z,23.90
2023-05-08T12:09:27.191Z,23.90
2023-05-08T12:11:58.984Z,23.90
2023-05-08T12:14:27.241Z,24.00
2023-05-08T12:16:56.905Z,24.00
2023-05-08T12:19:25.113Z,24.10
2023-05-08T12:21:53.239Z,24.00
2023-05-08T12:24:24.206Z,24.00
2023-05-08T12:26:56.644Z,24.00
2023-05-08T12:29:27.491Z,24.10
2023-05-08T12:31:57.464Z,24.10
2023-05-08T12:34:25.899Z,24.20
2023-05-08T12:37:04.204Z,24.20
2023-05-08T12:39:38.011Z,24.20
2023-05-08T12:42:06.534Z,24.30
2023-05-08T12:44:34.685Z,24.30
2023-05-08T12:47:06.537Z,24.40
2023-05-08T12:49:34.671Z,24.50
2023-05-08T12:52:07.515Z,24.50
2023-05-08T12:54:37.576Z,24.60
2023-05-08T12:57:12.500Z,24.80
2023-05-08T12:59:41.730Z,24.90
2023-05-08T13:02:21.405Z,25.10
2023-05-08T13:04:49.691Z,25.40
2023-05-08T13:07:17.869Z,25.70
2023-05-08T13:10:00.992Z,26.10
2023-05-08T13:12:29.291Z,26.20
2023-05-08T13:15:00.943Z,26.10
2023-05-08T13:17:30.436Z,26.00
2023-05-08T13:19:59.016Z,26.00
2023-05-08T13:22:27.370Z,26.00
2023-05-08T13:24:55.601Z,26.00
2023-05-08T13:27:24.244Z,25.90
2023-05-08T13:29:52.422Z,25.90
2023-05-08T13:32:20.805Z,25.90
2023-05-08T13:34:52.286Z,26.00
2023-05-08T13:37:23.285Z,26.10
2023-05-08T13:39:51.538Z,26.20
2023-05-08T13:42:19.632Z,26.30
2023-05-08T13:44:47.803Z,26.30
2023-05-08T13:47:15.927Z,26.20
2023-05-08T13:49:46.893Z,26.00
2023-05-08T13:52:16.374Z,25.80
2023-05-08T13:54:44.521Z,25.70
2023-05-08T13:57:12.837Z,25.70
2023-05-08T13:59:40.988Z,25.70
2023-05-08T14:02:09.195Z,25.70
2023-05-08T14:04:37.426Z,25.70
2023-05-08T14:07:05.572Z,25.60
2023-05-08T14:09:35.214Z,25.60
2023-05-08T14:12:03.383Z,25.50
2023-05-08T14:14:32.506Z,25.40
2023-05-08T14:17:02.606Z,25.20
2023-05-08T14:19:30.779Z,25.10
2023-05-08T14:21:59.028Z,24.90
2023-05-08T14:24:27.434Z,24.80
2023-05-08T14:26:57.056Z,24.80
2023-05-08T14:29:25.231Z,24.60
2023-05-08T14:31:53.394Z,24.70
2023-05-08T14:34:21.571Z,24.70
2023-05-08T14:36:49.676Z,24.70
2023-05-08T14:39:17.861Z,24.70
2023-05-08T14:41:59.738Z,24.70
2023-05-08T14:44:35.461Z,24.70
2023-05-08T14:47:03.773Z,24.80
2023-05-08T14:49:38.051Z,25.20
2023-05-08T14:52:07.485Z,25.50
2023-05-08T14:54:36.124Z,25.40
2023-05-08T14:57:04.549Z,25.30
2023-05-08T14:59:32.715Z,25.20
2023-05-08T15:02:02.338Z,25.10
2023-05-08T15:04:30.683Z,25.00
2023-05-08T15:06:58.788Z,25.00
2023-05-08T15:09:27.019Z,25.00
2023-05-08T15:11:55.171Z,25.00
2023-05-08T15:14:24.395Z,25.00
2023-05-08T15:16:52.593Z,25.00
2023-05-08T15:19:22.160Z,25.00
2023-05-08T15:21:50.259Z,24.90
2023-05-08T15:24:18.473Z,25.10
2023-05-08T15:26:46.589Z,25.10
2023-05-08T15:29:14.720Z,25.10
2023-05-08T15:31:42.872Z,24.90
2023-05-08T15:34:11.357Z,24.80
2023-05-08T15:36:40.879Z,24.60
2023-05-08T15:39:09.371Z,24.50
2023-05-08T15:41:39.675Z,24.40
2023-05-08T15:44:07.856Z,24.30
2023-05-08T15:46:36.104Z,24.20
2023-05-08T15:49:04.507Z,24.10
2023-05-08T15:51:32.767Z,24.00
2023-05-08T15:54:02.298Z,23.90
2023-05-08T15:56:30.457Z,23.90
2023-05-08T15:58:58.563Z,23.90
2023-05-08T16:01:26.798Z,23.80
2023-05-08T16:03:55.028Z,23.70
2023-05-08T16:06:23.278Z,23.60
2023-05-08T16:08:53.101Z,23.50
2023-05-08T16:11:22.640Z,23.40
2023-05-08T16:13:50.814Z,23.30
2023-05-08T16:16:18.952Z,23.30
2023-05-08T16:18:47.169Z,23.40
2023-05-08T16:21:15.377Z,23.40
2023-05-08T16:23:43.626Z,23.40
2023-05-08T16:26:11.750Z,23.30
2023-05-08T16:28:41.372Z,23.10
2023-05-08T16:31:09.619Z,23.00
2023-05-08T16:33:37.753Z,22.90
2023-05-08T16:36:06.892Z,22.80
2023-05-08T16:38:35.036Z,22.60
2023-05-08T16:41:03.794Z,22.50
2023-05-08T16:43:32.167Z,22.50
2023-05-08T16:46:01.740Z,22.50
2023-05-08T16:48:30.332Z,22.50
2023-05-08T16:50:58.575Z,22.50
2023-05-08T16:53:27.195Z,22.40
2023-05-08T16:55:55.503Z,22.20
2023-05-08T16:58:23.817Z,22.10
2023-05-08T17:00:51.992Z,22.00
2023-05-08T17:03:21.632Z,21.90
2023-05-08T17:05:49.840Z,21.80
2023-05-08T17:08:18.008Z,21.70
2023-05-08T17:10:46.265Z,21.60
2023-05-08T17:13:14.452Z,21.50
2023-05-08T17:15:42.656Z,21.40
2023-05-08T17:18:10.964Z,21.30
2023-05-08T17:20:42.347Z,21.20
2023-05-08T17:23:11.119Z,21.10
2023-05-08T17:25:39.362Z,21.00
2023-05-08T17:28:07.704Z,20.90
2023-05-08T17:30:35.845Z,20.80
2023-05-08T17:33:04.225Z,20.70
2023-05-08T17:35:32.446Z,20.50
2023-05-08T17:38:01.985Z,20.40
2023-05-08T17:40:30.160Z,20.30
2023-05-08T17:42:59.777Z,20.20
2023-05-08T17:45:28.374Z,20.10
2023-05-08T17:47:56.663Z,20.00
2023-05-08T17:50:25.125Z,19.90
2023-05-08T17:52:53.355Z,19.80
2023-05-08T17:55:23.123Z,19.70
2023-05-08T17:57:51.313Z,19.60
2023-05-08T18:00:20.351Z,19.50
2023-05-08T18:02:48.585Z,19.40
2023-05-08T18:05:16.945Z,19.40
2023-05-08T18:07:45.189Z,19.30
2023-05-08T18:10:13.802Z,19.20
2023-05-08T18:12:43.595Z,19.10
2023-05-08T18:15:12.701Z,19.00
2023-05-08T18:17:41.330Z,19.00
2023-05-08T18:20:13.677Z,18.90
2023-05-08T18:22:42.175Z,18.80
2023-05-08T18:25:10.974Z,18.80
2023-05-08T18:27:40.404Z,18.70
2023-05-08T18:30:14.248Z,18.60
2023-05-08T18:32:42.938Z,18.60
2023-05-08T18:35:11.318Z,18.50
2023-05-08T18:37:39.661Z,18.50
2023-05-08T18:40:11.151Z,18.40
2023-05-08T18:42:41.740Z,18.30
2023-05-08T18:45:15.159Z,18.30
2023-05-08T18:47:43.423Z,18.20
2023-05-08T18:50:12.263Z,18.20
2023-05-08T18:52:41.112Z,18.10
2023-05-08T18:55:10.309Z,18.10
2023-05-08T18:57:38.679Z,18.00
2023-05-08T19:00:09.514Z,18.00
2023-05-08T19:02:39.780Z,18.00
2023-05-08T19:05:09.598Z,17.90
2023-05-08T19:07:41.566Z,17.90
2023-05-08T19:10:13.684Z,17.80
2023-05-08T19:12:43.105Z,17.80
2023-05-08T19:15:14.048Z,17.70
2023-05-08T19:17:44.719Z,17.70
2023-05-08T19:20:15.323Z,17.70
2023-05-08T19:22:45.822Z,17.60
2023-05-08T19:25:14.733Z,17.60
2023-05-08T19:27:43.732Z,17.50
2023-05-08T19:30:13.511Z,17.50
2023-05-08T19:32:43.406Z,17.50
2023-05-08T19:35:11.859Z,17.40
2023-05-08T19:37:40.276Z,17.30
2023-05-08T19:40:10.273Z,17.30
2023-05-08T19:42:38.551Z,17.20
2023-05-08T19:45:08.324Z,17.20
2023-05-08T19:47:36.852Z,17.10
2023-05-08T19:50:08.317Z,17.10
2023-05-08T19:52:36.505Z,17.10
2023-05-08T19:55:05.081Z,17.00
2023-05-08T19:57:33.292Z,17.00
2023-05-08T20:00:01.564Z,16.90
2023-05-08T20:02:32.763Z,16.90
2023-05-08T20:07:33.569Z,16.80
2023-05-08T20:10:01.998Z,16.80
2023-05-08T20:12:30.247Z,16.80
2023-05-08T20:14:58.367Z,16.70
2023-05-08T20:17:26.840Z,16.70
2023-05-08T20:19:55.099Z,16.70
2023-05-08T20:22:23.328Z,16.60
2023-05-08T20:24:52.898Z,16.60
2023-05-08T20:27:21.336Z,16.60
2023-05-08T20:29:49.526Z,16.50
2023-05-08T20:32:19.167Z,16.50
2023-05-08T20:34:47.489Z,16.50
2023-05-08T20:37:16.772Z,16.50
2023-05-08T20:39:45.158Z,16.40
2023-05-08T20:42:14.898Z,16.40
2023-05-08T20:44:43.054Z,16.40
2023-05-08T20:47:11.215Z,16.30
2023-05-08T20:49:39.375Z,16.30
2023-05-08T20:52:07.545Z,16.30
2023-05-08T20:54:35.774Z,16.30
2023-05-08T20:57:03.897Z,16.20
2023-05-08T20:59:33.423Z,16.20
2023-05-08T21:02:01.659Z,16.20
2023-05-08T21:04:29.926Z,16.20
2023-05-08T21:06:58.693Z,16.20
2023-05-08T21:09:26.837Z,16.10
2023-05-08T21:11:55.009Z,16.10
2023-05-08T21:14:23.399Z,16.10
2023-05-08T21:16:53.901Z,16.10
2023-05-08T21:19:22.421Z,16.00
2023-05-08T21:21:50.642Z,16.00
2023-05-08T21:24:18.832Z,16.00
2023-05-08T21:26:47.024Z,15.90
2023-05-08T21:29:15.264Z,15.90
2023-05-08T21:31:43.487Z,15.90
2023-05-08T21:34:13.451Z,15.90
2023-05-08T21:36:41.722Z,15.90
2023-05-08T21:39:09.928Z,15.80
2023-05-08T21:41:38.029Z,15.80
2023-05-08T21:44:06.847Z,15.80
2023-05-08T21:46:35.191Z,15.80
2023-05-08T21:49:04.014Z,15.80
2023-05-08T21:51:33.650Z,15.70
2023-05-08T21:54:01.852Z,15.70
2023-05-08T21:56:29.990Z,15.70
2023-05-08T21:58:58.098Z,15.70
2023-05-08T22:01:26.287Z,15.60
2023-05-08T22:03:54.618Z,15.60
2023-05-08T22:06:22.978Z,15.60
2023-05-08T22:09:03.956Z,15.60
2023-05-08T22:11:32.201Z,15.60
2023-05-08T22:14:00.873Z,15.60
2023-05-08T22:16:29.075Z,15.50
2023-05-08T22:18:57.317Z,15.50
2023-05-08T22:21:29.409Z,15.50
2023-05-08T22:23:58.983Z,15.50
2023-05-08T22:26:28.624Z,15.50
2023-05-08T22:28:57.096Z,15.50
2023-05-08T22:31:25.350Z,15.50
2023-05-08T22:33:53.509Z,15.50
2023-05-08T22:36:23.834Z,15.50
2023-05-08T22:38:52.208Z,15.40
2023-05-08T22:41:22.458Z,15.50
2023-05-08T22:43:50.946Z,15.40
2023-05-08T22:46:19.691Z,15.40
2023-05-08T22:48:47.996Z,15.40
2023-05-08T22:51:16.188Z,15.40
2023-05-08T22:53:44.354Z,15.40
2023-05-08T22:56:12.703Z,15.30
2023-05-08T22:58:42.132Z,15.30
2023-05-08T23:01:10.715Z,15.30
2023-05-08T23:03:38.907Z,15.30
2023-05-08T23:06:07.449Z,15.20
2023-05-08T23:08:35.571Z,15.20
2023-05-08T23:11:03.726Z,15.20
2023-05-08T23:13:33.429Z,15.20
2023-05-08T23:16:02.908Z,15.10
2023-05-08T23:18:31.100Z,15.10
2023-05-08T23:21:04.864Z,15.10
2023-05-08T23:23:33.069Z,15.10
2023-05-08T23:26:04.642Z,15.00
2023-05-08T23:28:35.988Z,15.00
2023-05-08T23:31:05.655Z,15.00
2023-05-08T23:33:33.819Z,15.00
2023-05-08T23:36:02.081Z,15.00
2023-05-08T23:38:30.989Z,15.00
2023-05-08T23:40:59.231Z,14.90
2023-05-08T23:43:27.346Z,14.90
2023-05-08T23:45:55.626Z,14.90
2023-05-08T23:48:25.677Z,14.90
2023-05-08T23:50:53.917Z,14.90
2023-05-08T23:53:22.058Z,14.90
2023-05-08T23:55:52.238Z,14.90
2023-05-08T23:58:20.817Z,14.80
